Terminal Aerodrome Forecast
Issued by NWS

Home | Current Version | Previous Version | Text Only | Print | Product List | Glossary On
Versions: 1 2 3 4 5 6 7 8 9 10 11 12 13 14 15 16 17 18 19 20 21 22 23 24 25 26 27 28 29 30
000
FTUS45 KBOI 041139
TAFBKE
TAF
KBKE 041139Z 0412/0512 VRB03KT 6SM BR VCSH FEW006 OVC040
     FM041400 VRB03KT 3SM -SN BR OVC025
     FM042000 30007KT 5SM -SN BR OVC040
     FM050200 31010KT P6SM VCSH SCT040 OVC060=

USA.gov is the U.S. government's official web portal to all federal, state and local government web resources and services.